createdAt,value
2023-06-21T00:01:43.314Z,24.70
2023-06-21T00:04:12.196Z,28.60
2023-06-21T00:06:39.474Z,27.88
2023-06-21T00:09:07.031Z,25.30
2023-06-21T00:11:34.225Z,28.45
2023-06-21T00:14:02.769Z,27.35
2023-06-21T00:18:56.119Z,24.88
2023-06-21T00:21:23.142Z,28.42
2023-06-21T00:23:50.107Z,27.98
2023-06-21T00:26:16.762Z,24.95
2023-06-21T00:28:54.263Z,24.83
2023-06-21T00:31:24.785Z,25.10
2023-06-21T00:33:56.356Z,25.65
2023-06-21T00:36:25.393Z,27.10
2023-06-21T00:38:52.304Z,24.63
2023-06-21T00:41:27.654Z,22.88
2023-06-21T00:43:54.675Z,25.60
2023-06-21T00:46:22.855Z,25.33
2023-06-21T00:48:54.027Z,24.48
2023-06-21T00:51:21.099Z,24.30
2023-06-21T00:53:48.626Z,22.73
2023-06-21T00:56:17.963Z,25.60
2023-06-21T00:58:45.387Z,23.55
2023-06-21T01:01:12.216Z,23.98
2023-06-21T01:03:42.062Z,23.63
2023-06-21T01:06:30.873Z,23.70
2023-06-21T01:09:14.823Z,23.80
2023-06-21T01:11:55.055Z,21.70
2023-06-21T01:15:04.518Z,23.02
2023-06-21T01:17:36.201Z,20.48
2023-06-21T01:20:44.107Z,25.23
2023-06-21T01:23:30.485Z,23.90
2023-06-21T01:26:21.303Z,19.95
2023-06-21T01:29:17.199Z,23.08
2023-06-21T01:31:51.557Z,23.05
2023-06-21T01:34:42.247Z,21.23
2023-06-21T01:37:29.774Z,23.60
2023-06-21T01:40:07.250Z,23.15
2023-06-21T01:45:24.690Z,22.00
2023-06-21T01:47:55.665Z,24.20
2023-06-21T01:50:25.549Z,28.77
2023-06-21T01:52:53.207Z,24.30
2023-06-21T01:55:21.577Z,28.25
2023-06-21T01:57:48.963Z,30.23
2023-06-21T02:00:22.710Z,30.30
2023-06-21T02:02:56.473Z,32.17
2023-06-21T02:05:24.842Z,29.70
2023-06-21T02:08:01.972Z,33.05
2023-06-21T02:10:36.683Z,33.40
2023-06-21T02:13:05.851Z,33.45
2023-06-21T02:18:32.119Z,32.30
2023-06-21T02:21:07.897Z,34.30
2023-06-21T02:23:46.204Z,34.17
2023-06-21T02:26:18.821Z,36.17
2023-06-21T02:28:47.534Z,37.05
2023-06-21T02:31:25.585Z,35.80
2023-06-21T02:37:18.769Z,35.65
2023-06-21T02:40:08.713Z,34.85
2023-06-21T02:42:49.116Z,35.30
2023-06-21T02:47:47.919Z,34.53
2023-06-21T02:50:18.689Z,37.92
2023-06-21T02:52:45.766Z,35.40
2023-06-21T02:55:12.950Z,35.80
2023-06-21T02:57:42.798Z,41.13
2023-06-21T03:00:31.424Z,36.80
2023-06-21T03:03:05.801Z,39.28
2023-06-21T03:05:41.002Z,38.92
2023-06-21T03:08:30.765Z,40.03
2023-06-21T03:17:49.562Z,39.53
2023-06-21T03:21:07.313Z,39.13
2023-06-21T03:23:55.256Z,40.85
2023-06-21T03:26:46.591Z,40.20
2023-06-21T03:30:08.397Z,38.92
2023-06-21T03:32:49.356Z,41.45
2023-06-21T03:35:20.263Z,40.17
2023-06-21T03:37:51.631Z,42.42
2023-06-21T03:40:23.768Z,44.63
2023-06-21T03:42:50.378Z,41.25
2023-06-21T03:45:17.041Z,44.25
2023-06-21T03:47:50.094Z,43.42
2023-06-21T03:50:17.567Z,42.83
2023-06-21T03:52:46.477Z,44.95
2023-06-21T03:55:13.105Z,41.60
2023-06-21T03:57:39.686Z,43.00
2023-06-21T04:00:10.122Z,40.33
2023-06-21T04:02:42.844Z,38.83
2023-06-21T04:05:12.766Z,40.78
2023-06-21T04:07:39.894Z,40.13
2023-06-21T04:10:07.260Z,38.97
2023-06-21T04:12:33.876Z,41.53
2023-06-21T04:15:04.954Z,41.95
2023-06-21T04:17:32.596Z,37.30
2023-06-21T04:19:59.472Z,44.53
2023-06-21T04:22:26.256Z,38.28
2023-06-21T04:24:53.333Z,37.80
2023-06-21T04:27:20.124Z,39.92
2023-06-21T04:29:49.229Z,38.80
2023-06-21T04:32:15.793Z,40.05
2023-06-21T04:34:44.635Z,38.38
2023-06-21T04:37:11.293Z,40.42
2023-06-21T04:39:37.851Z,36.88
2023-06-21T04:42:04.881Z,37.50
2023-06-21T04:44:31.504Z,34.90
2023-06-21T04:47:01.651Z,34.50
2023-06-21T04:49:30.073Z,37.42
2023-06-21T04:51:59.210Z,33.55
2023-06-21T04:54:26.781Z,34.60
2023-06-21T04:56:53.643Z,36.55
2023-06-21T04:59:20.209Z,34.33
2023-06-21T05:01:46.902Z,34.15
2023-06-21T05:04:13.681Z,36.13
2023-06-21T05:06:41.838Z,31.38
2023-06-21T05:09:10.030Z,35.70
2023-06-21T05:11:37.778Z,30.10
2023-06-21T05:14:05.602Z,34.00
2023-06-21T05:16:32.996Z,30.80
2023-06-21T05:18:59.550Z,30.70
2023-06-21T05:21:26.065Z,30.42
2023-06-21T05:23:52.631Z,29.40
2023-06-21T05:26:19.166Z,30.15
2023-06-21T05:28:45.669Z,30.60
2023-06-21T05:31:12.238Z,31.05
2023-06-21T05:33:38.750Z,26.38
2023-06-21T05:36:05.520Z,30.05
2023-06-21T05:38:31.987Z,26.42
2023-06-21T05:40:58.448Z,25.63
2023-06-21T05:43:25.012Z,26.30
2023-06-21T05:45:51.482Z,24.55
2023-06-21T05:48:19.132Z,24.08
2023-06-21T05:50:45.753Z,24.58
2023-06-21T05:53:12.383Z,24.98
2023-06-21T05:55:39.021Z,23.77
2023-06-21T05:58:07.170Z,22.42
2023-06-21T06:00:33.670Z,26.65
2023-06-21T06:03:00.169Z,29.83
2023-06-21T06:05:26.691Z,29.35
2023-06-21T06:07:53.172Z,22.98
2023-06-21T06:10:19.684Z,23.65
2023-06-21T06:12:46.223Z,24.13
2023-06-21T06:15:15.249Z,22.52
2023-06-21T06:17:41.826Z,20.48
2023-06-21T06:20:08.974Z,22.15
2023-06-21T06:22:38.466Z,25.13
2023-06-21T06:25:05.401Z,22.95
2023-06-21T06:27:32.254Z,20.02
2023-06-21T06:29:59.232Z,21.17
2023-06-21T06:32:28.115Z,19.70
2023-06-21T06:34:54.670Z,24.83
2023-06-21T06:37:26.204Z,21.20
2023-06-21T06:39:55.970Z,21.85
2023-06-21T06:42:22.511Z,18.08
2023-06-21T06:44:49.119Z,17.05
2023-06-21T06:47:15.654Z,16.75
2023-06-21T06:49:42.346Z,15.60
2023-06-21T06:52:11.365Z,18.67
2023-06-21T06:54:37.837Z,16.73
2023-06-21T06:57:04.580Z,18.40
2023-06-21T06:59:31.675Z,15.93
2023-06-21T07:01:58.486Z,17.98
2023-06-21T07:04:26.868Z,17.92
2023-06-21T07:06:53.778Z,17.27
2023-06-21T07:09:20.208Z,16.67
2023-06-21T07:11:46.724Z,15.25
2023-06-21T07:14:13.346Z,16.55
2023-06-21T07:16:45.237Z,12.70
2023-06-21T07:19:11.842Z,15.00
2023-06-21T07:21:40.208Z,15.85
2023-06-21T07:24:06.693Z,13.48
2023-06-21T07:26:34.591Z,14.18
2023-06-21T07:29:02.003Z,13.40
2023-06-21T07:31:28.804Z,13.65
2023-06-21T07:33:57.690Z,13.07
2023-06-21T07:36:24.547Z,14.52
2023-06-21T07:38:53.310Z,12.23
2023-06-21T07:41:20.018Z,13.23
2023-06-21T07:43:46.515Z,14.27
2023-06-21T07:46:16.166Z,13.68
2023-06-21T07:48:42.981Z,12.90
2023-06-21T07:51:10.196Z,13.02
2023-06-21T07:53:36.724Z,11.63
2023-06-21T07:56:03.224Z,10.50
2023-06-21T07:58:30.053Z,10.65
2023-06-21T08:00:56.615Z,11.57
2023-06-21T08:03:23.389Z,10.75
2023-06-21T08:05:49.951Z,8.85
2023-06-21T08:08:18.763Z,11.80
2023-06-21T08:10:45.546Z,11.75
2023-06-21T08:13:12.252Z,10.13
2023-06-21T08:15:39.016Z,9.35
2023-06-21T08:18:05.723Z,7.88
2023-06-21T08:20:34.693Z,6.60
2023-06-21T08:23:01.705Z,7.90
2023-06-21T08:25:32.071Z,6.85
2023-06-21T08:28:01.460Z,6.20
2023-06-21T08:30:28.285Z,7.80
2023-06-21T08:32:55.290Z,5.22
2023-06-21T08:35:21.970Z,6.07
2023-06-21T08:38:18.419Z,6.10
2023-06-21T08:40:49.538Z,4.68
2023-06-21T08:43:16.179Z,7.30
2023-06-21T08:45:42.812Z,6.05
2023-06-21T08:48:10.793Z,6.45
2023-06-21T08:50:41.558Z,7.75
2023-06-21T08:53:13.793Z,8.20
2023-06-21T08:55:42.382Z,9.80
2023-06-21T08:58:17.419Z,8.25
2023-06-21T09:00:51.558Z,8.27
2023-06-21T09:03:27.572Z,6.13
2023-06-21T09:06:04.208Z,6.93
2023-06-21T09:08:34.934Z,7.15
2023-06-21T09:11:02.096Z,5.85
2023-06-21T09:13:32.959Z,6.32
2023-06-21T09:16:00.259Z,4.57
2023-06-21T09:18:27.610Z,4.28
2023-06-21T09:20:55.358Z,4.95
2023-06-21T09:23:23.871Z,4.32
2023-06-21T09:25:50.388Z,4.22
2023-06-21T09:28:17.074Z,3.15
2023-06-21T09:30:44.398Z,2.63
2023-06-21T09:35:40.109Z,2.38
2023-06-21T09:38:24.382Z,6.15
2023-06-21T09:40:51.620Z,3.05
2023-06-21T09:43:19.814Z,2.13
2023-06-21T09:46:10.137Z,2.78
2023-06-21T09:48:38.738Z,2.38
2023-06-21T09:51:08.208Z,2.05
2023-06-21T09:53:48.762Z,2.88
2023-06-21T09:56:19.739Z,2.05
2023-06-21T09:58:50.080Z,2.80
2023-06-21T10:01:17.737Z,3.97
2023-06-21T10:03:46.290Z,3.25
2023-06-21T10:06:18.131Z,2.35
2023-06-21T10:08:52.536Z,2.15
2023-06-21T10:11:20.888Z,3.00
2023-06-21T10:13:47.522Z,2.60
2023-06-21T10:16:18.668Z,2.92
2023-06-21T10:18:45.553Z,2.85
2023-06-21T10:21:13.355Z,2.40
2023-06-21T10:23:42.950Z,3.05
2023-06-21T10:26:14.079Z,2.08
2023-06-21T10:28:43.502Z,3.25
2023-06-21T10:31:10.524Z,2.60
2023-06-21T10:33:38.281Z,2.33
2023-06-21T10:36:06.996Z,2.70
2023-06-21T10:38:42.729Z,1.90
2023-06-21T10:41:10.031Z,4.80
2023-06-21T10:43:36.668Z,3.00
2023-06-21T10:46:06.150Z,3.72
2023-06-21T10:48:34.529Z,1.67
2023-06-21T10:51:03.117Z,2.17
2023-06-21T10:53:32.577Z,2.03
2023-06-21T10:56:01.587Z,3.95
2023-06-21T10:58:29.911Z,3.30
2023-06-21T11:00:57.646Z,3.75
2023-06-21T11:03:27.092Z,3.47
2023-06-21T11:05:55.862Z,2.85
2023-06-21T11:08:38.118Z,2.67
2023-06-21T11:11:04.952Z,3.22
2023-06-21T11:13:36.706Z,2.47
2023-06-21T11:16:11.470Z,2.55
2023-06-21T11:18:38.673Z,2.90
2023-06-21T11:21:08.828Z,2.40
2023-06-21T11:23:52.573Z,4.25
2023-06-21T11:26:19.556Z,3.83
2023-06-21T11:28:50.257Z,2.78
2023-06-21T11:31:18.994Z,3.63
2023-06-21T11:33:47.335Z,2.70
2023-06-21T11:36:14.195Z,2.42
2023-06-21T11:38:50.445Z,3.97
2023-06-21T11:41:56.315Z,3.72
2023-06-21T11:44:29.132Z,2.55
2023-06-21T11:47:15.014Z,4.78
2023-06-21T11:49:48.102Z,3.63
2023-06-21T11:52:14.870Z,3.55
2023-06-21T11:54:41.369Z,2.75
2023-06-21T11:57:08.897Z,2.95
2023-06-21T11:59:36.448Z,3.85
2023-06-21T12:02:17.733Z,4.70
2023-06-21T12:04:45.272Z,6.43
2023-06-21T12:07:11.971Z,3.17
2023-06-21T12:09:40.024Z,3.67
2023-06-21T12:12:08.041Z,3.47
2023-06-21T12:14:36.548Z,3.05
2023-06-21T12:17:04.496Z,3.45
2023-06-21T12:22:03.389Z,4.97
2023-06-21T12:24:31.046Z,3.33
2023-06-21T12:26:59.400Z,5.03
2023-06-21T12:29:28.218Z,3.35
2023-06-21T12:31:57.951Z,3.10
2023-06-21T12:34:26.626Z,3.85
2023-06-21T12:36:56.331Z,3.30
2023-06-21T12:39:23.952Z,2.92
2023-06-21T12:41:50.658Z,3.35
2023-06-21T12:44:20.036Z,3.28
2023-06-21T12:46:46.703Z,2.97
2023-06-21T12:49:16.507Z,3.28
2023-06-21T12:51:46.485Z,3.78
2023-06-21T12:54:15.096Z,2.85
2023-06-21T12:56:43.309Z,4.18
2023-06-21T12:59:10.200Z,2.90
2023-06-21T13:01:38.103Z,3.35
2023-06-21T13:04:13.391Z,2.75
2023-06-21T13:06:40.919Z,1.85
2023-06-21T13:09:07.882Z,2.50
2023-06-21T13:11:34.661Z,3.28
2023-06-21T13:14:01.591Z,4.70
2023-06-21T13:16:28.097Z,3.35
2023-06-21T13:18:55.389Z,3.22
2023-06-21T13:21:22.708Z,3.00
2023-06-21T13:23:51.131Z,3.10
2023-06-21T13:26:18.843Z,3.65
2023-06-21T13:28:45.695Z,3.95
2023-06-21T13:31:14.157Z,2.42
2023-06-21T13:33:41.455Z,3.45
2023-06-21T13:36:09.246Z,3.08
2023-06-21T13:38:36.121Z,3.58
2023-06-21T13:41:05.118Z,4.95
2023-06-21T13:43:32.283Z,4.18
2023-06-21T13:45:58.928Z,3.80
2023-06-21T13:48:25.650Z,5.47
2023-06-21T13:50:53.184Z,5.15
2023-06-21T13:53:22.476Z,2.40
2023-06-21T13:55:49.609Z,3.38
2023-06-21T13:58:16.196Z,4.32
2023-06-21T14:00:42.723Z,3.42
2023-06-21T14:03:09.468Z,4.57
2023-06-21T14:05:36.135Z,4.20
2023-06-21T14:08:04.577Z,3.17
2023-06-21T14:10:32.928Z,5.82
2023-06-21T14:13:00.050Z,4.88
2023-06-21T14:15:26.936Z,8.05
2023-06-21T14:17:53.734Z,5.43
2023-06-21T14:20:20.293Z,2.63
2023-06-21T14:22:46.827Z,3.35
2023-06-21T14:25:13.392Z,3.40
2023-06-21T14:27:40.634Z,3.00
2023-06-21T14:30:11.089Z,5.07
2023-06-21T14:32:37.753Z,2.22
2023-06-21T14:35:04.625Z,3.95
2023-06-21T14:37:31.313Z,2.25
2023-06-21T14:39:58.058Z,2.00
2023-06-21T14:42:28.943Z,4.78
2023-06-21T14:44:55.614Z,2.60
2023-06-21T14:47:22.280Z,2.75
2023-06-21T14:49:50.962Z,3.05
2023-06-21T14:52:17.993Z,4.18
2023-06-21T14:54:44.616Z,2.58
2023-06-21T14:57:12.498Z,4.45
2023-06-21T14:59:41.212Z,4.95
2023-06-21T15:02:10.258Z,4.22
2023-06-21T15:04:36.901Z,3.38
2023-06-21T15:07:03.519Z,2.03
2023-06-21T15:09:30.207Z,3.60
2023-06-21T15:11:57.876Z,4.18
2023-06-21T15:14:25.583Z,3.83
2023-06-21T15:16:52.160Z,3.40
2023-06-21T15:19:21.305Z,4.88
2023-06-21T15:21:48.632Z,4.18
2023-06-21T15:24:15.417Z,3.88
2023-06-21T15:26:42.455Z,4.43
2023-06-21T15:29:09.294Z,4.70
2023-06-21T15:31:37.185Z,5.13
2023-06-21T15:34:09.747Z,4.00
2023-06-21T15:36:38.874Z,4.20
2023-06-21T15:39:06.827Z,4.22
2023-06-21T15:41:33.973Z,3.45
2023-06-21T15:44:00.968Z,6.75
2023-06-21T15:46:29.311Z,3.35
2023-06-21T15:48:57.355Z,3.65
2023-06-21T15:51:25.149Z,4.00
2023-06-21T15:53:56.460Z,4.15
2023-06-21T15:56:24.393Z,3.72
2023-06-21T15:58:51.704Z,3.28
2023-06-21T16:01:18.849Z,3.80
2023-06-21T16:03:47.528Z,3.13
2023-06-21T16:06:15.576Z,3.30
2023-06-21T16:08:42.448Z,3.95
2023-06-21T16:11:12.240Z,4.05
2023-06-21T16:13:46.641Z,4.28
2023-06-21T16:16:14.331Z,2.90
2023-06-21T16:18:41.034Z,2.83
2023-06-21T16:21:07.712Z,2.58
2023-06-21T16:23:34.649Z,4.18
2023-06-21T16:26:01.728Z,6.22
2023-06-21T16:28:28.693Z,2.47
2023-06-21T16:30:55.286Z,2.50
2023-06-21T16:33:21.930Z,3.13
2023-06-21T16:35:49.238Z,3.25
2023-06-21T16:38:16.057Z,3.80
2023-06-21T16:40:42.776Z,4.63
2023-06-21T16:43:09.495Z,3.92
2023-06-21T16:45:36.088Z,3.45
2023-06-21T16:48:03.432Z,2.97
2023-06-21T16:50:30.141Z,4.05
2023-06-21T16:52:56.715Z,6.10
2023-06-21T16:55:23.311Z,3.90
2023-06-21T16:57:50.247Z,4.05
2023-06-21T17:00:17.133Z,3.35
2023-06-21T17:02:43.956Z,3.58
2023-06-21T17:05:10.696Z,3.97
2023-06-21T17:07:37.552Z,3.30
2023-06-21T17:10:04.488Z,3.50
2023-06-21T17:12:30.958Z,3.97
2023-06-21T17:14:57.761Z,4.47
2023-06-21T17:17:25.354Z,2.63
2023-06-21T17:19:51.912Z,2.17
2023-06-21T17:22:18.429Z,2.55
2023-06-21T17:24:44.949Z,1.98
2023-06-21T17:27:11.513Z,3.33
2023-06-21T17:29:38.023Z,2.30
2023-06-21T17:32:04.791Z,3.03
2023-06-21T17:34:31.829Z,3.20
2023-06-21T17:36:58.422Z,1.90
2023-06-21T17:39:25.402Z,3.28
2023-06-21T17:41:52.054Z,1.90
2023-06-21T17:44:18.658Z,3.22
2023-06-21T17:46:45.289Z,4.93
2023-06-21T17:49:12.058Z,2.38
2023-06-21T17:51:38.570Z,2.38
2023-06-21T17:54:05.092Z,2.58
2023-06-21T17:56:33.672Z,2.80
2023-06-21T17:59:01.515Z,2.20
2023-06-21T18:01:28.143Z,3.35
2023-06-21T18:03:54.977Z,4.03
2023-06-21T18:06:23.070Z,2.70
2023-06-21T18:08:49.513Z,2.60
2023-06-21T18:11:16.085Z,3.10
2023-06-21T18:13:42.578Z,3.10
2023-06-21T18:16:08.992Z,2.67
2023-06-21T18:18:35.465Z,2.70
2023-06-21T18:21:02.000Z,2.58
2023-06-21T18:23:28.870Z,2.70
2023-06-21T18:25:57.290Z,2.38
2023-06-21T18:28:24.643Z,4.18
2023-06-21T18:30:51.270Z,3.75
2023-06-21T18:33:18.191Z,4.20
2023-06-21T18:35:44.823Z,3.47
2023-06-21T18:38:11.323Z,3.90
2023-06-21T18:40:38.566Z,3.08
2023-06-21T18:43:05.061Z,3.80
2023-06-21T18:45:31.516Z,4.20
2023-06-21T18:47:58.050Z,3.33
2023-06-21T18:50:24.717Z,2.00
2023-06-21T18:52:51.256Z,4.45
2023-06-21T18:55:17.857Z,2.88
2023-06-21T18:57:44.411Z,3.55
2023-06-21T19:00:13.566Z,4.57
2023-06-21T19:02:40.213Z,3.50
2023-06-21T19:05:07.355Z,2.92
2023-06-21T19:07:34.250Z,2.92
2023-06-21T19:10:00.915Z,3.08
2023-06-21T19:12:27.867Z,2.95
2023-06-21T19:14:54.801Z,2.65
2023-06-21T19:17:21.871Z,3.85
2023-06-21T19:19:48.601Z,3.95
2023-06-21T19:22:15.346Z,2.20
2023-06-21T19:24:42.069Z,3.63
2023-06-21T19:27:23.609Z,2.63
2023-06-21T19:29:53.151Z,2.97
2023-06-21T19:32:22.512Z,2.80
2023-06-21T19:34:49.568Z,4.00
2023-06-21T19:37:31.459Z,4.30
2023-06-21T19:39:58.321Z,2.75
2023-06-21T19:42:24.939Z,3.13
2023-06-21T19:44:54.121Z,5.72
2023-06-21T19:47:20.761Z,3.20
2023-06-21T19:49:47.373Z,4.38
2023-06-21T19:52:17.338Z,5.22
2023-06-21T19:54:44.030Z,4.88
2023-06-21T19:57:10.685Z,2.85
2023-06-21T19:59:37.459Z,3.88
2023-06-21T20:02:04.593Z,2.95
2023-06-21T20:04:31.544Z,3.40
2023-06-21T20:06:58.303Z,4.28
2023-06-21T20:09:25.128Z,3.13
2023-06-21T20:11:51.854Z,3.95
2023-06-21T20:14:18.645Z,3.05
2023-06-21T20:16:45.937Z,4.88
2023-06-21T20:19:16.924Z,3.42
2023-06-21T20:21:46.755Z,2.95
2023-06-21T20:24:16.995Z,4.55
2023-06-21T20:26:44.022Z,3.28
2023-06-21T20:29:10.959Z,3.97
2023-06-21T20:31:38.197Z,3.25
2023-06-21T20:34:08.938Z,4.15
2023-06-21T20:36:36.835Z,3.97
2023-06-21T20:39:08.845Z,4.30
2023-06-21T20:41:35.619Z,5.13
2023-06-21T20:44:02.941Z,5.18
2023-06-21T20:46:29.759Z,4.45
2023-06-21T20:48:59.534Z,4.85
2023-06-21T20:51:26.375Z,5.20
2023-06-21T20:53:52.831Z,4.55
2023-06-21T20:56:19.512Z,3.70
2023-06-21T20:58:46.069Z,2.90
2023-06-21T21:01:15.009Z,3.60
2023-06-21T21:03:42.603Z,4.50
2023-06-21T21:06:09.294Z,5.60
2023-06-21T21:08:38.365Z,4.47
2023-06-21T21:11:05.892Z,3.97
2023-06-21T21:13:34.400Z,4.50
2023-06-21T21:16:00.934Z,3.72
2023-06-21T21:18:27.463Z,6.10
2023-06-21T21:20:53.918Z,4.10
2023-06-21T21:23:21.165Z,6.32
2023-06-21T21:25:48.147Z,5.47
2023-06-21T21:28:15.249Z,5.13
2023-06-21T21:30:41.858Z,4.93
2023-06-21T21:33:08.398Z,6.68
2023-06-21T21:35:35.224Z,5.50
2023-06-21T21:38:06.895Z,4.35
2023-06-21T21:40:33.731Z,4.13
2023-06-21T21:43:00.448Z,5.75
2023-06-21T21:45:26.909Z,4.93
2023-06-21T21:47:53.528Z,6.43
2023-06-21T21:50:20.166Z,5.65
2023-06-21T21:52:46.754Z,5.10
2023-06-21T21:55:17.062Z,6.07
2023-06-21T21:57:43.563Z,4.55
2023-06-21T22:00:11.905Z,5.82
2023-06-21T22:02:42.041Z,7.28
2023-06-21T22:05:08.687Z,5.65
2023-06-21T22:07:35.148Z,8.32
2023-06-21T22:10:02.947Z,6.65
2023-06-21T22:12:29.474Z,5.50
2023-06-21T22:14:56.102Z,6.18
2023-06-21T22:17:43.151Z,6.07
2023-06-21T22:20:16.411Z,5.15
2023-06-21T22:22:45.338Z,6.32
2023-06-21T22:25:14.272Z,8.85
2023-06-21T22:27:42.722Z,9.57
2023-06-21T22:30:09.999Z,7.43
2023-06-21T22:32:36.548Z,11.40
2023-06-21T22:35:03.990Z,8.18
2023-06-21T22:37:30.699Z,7.68
2023-06-21T22:39:57.246Z,10.73
2023-06-21T22:42:23.730Z,8.13
2023-06-21T22:44:50.235Z,7.72
2023-06-21T22:47:18.552Z,7.20
2023-06-21T22:49:45.735Z,8.93
2023-06-21T22:52:12.354Z,8.15
2023-06-21T22:54:40.275Z,11.30
2023-06-21T22:57:09.103Z,8.20
2023-06-21T22:59:36.205Z,8.10
2023-06-21T23:02:02.720Z,7.95
2023-06-21T23:04:29.975Z,8.73
2023-06-21T23:06:56.703Z,8.68
2023-06-21T23:09:23.727Z,9.10
2023-06-21T23:11:50.448Z,9.00
2023-06-21T23:14:19.044Z,8.35
2023-06-21T23:16:45.757Z,6.88
2023-06-21T23:19:14.157Z,7.90
2023-06-21T23:21:42.196Z,9.82
2023-06-21T23:24:09.386Z,8.02
2023-06-21T23:26:35.929Z,11.30
2023-06-21T23:29:03.261Z,7.53
2023-06-21T23:31:34.670Z,8.38
2023-06-21T23:34:02.392Z,7.10
2023-06-21T23:36:31.326Z,8.63
2023-06-21T23:39:01.158Z,7.93
2023-06-21T23:41:31.843Z,7.75
2023-06-21T23:44:02.650Z,7.75
2023-06-21T23:46:33.561Z,8.50
2023-06-21T23:49:02.038Z,10.57
2023-06-21T23:51:31.375Z,9.50
2023-06-21T23:53:58.752Z,8.35
2023-06-21T23:56:27.770Z,7.72
2023-06-21T23:58:54.851Z,9.30
